sensor_id;sensor_type;location;lat;lon;timestamp;P1;durP1;ratioP1;P2;durP2;ratioP2
22713;SDS011;11524;50.846;4.326;2022-12-07T00:01:08;3.90;;;3.05;;
22713;SDS011;11524;50.846;4.326;2022-12-07T00:03:36;5.35;;;3.70;;
22713;SDS011;11524;50.846;4.326;2022-12-07T00:06:03;4.55;;;3.30;;
22713;SDS011;11524;50.846;4.326;2022-12-07T00:08:29;7.03;;;3.13;;
22713;SDS011;11524;50.846;4.326;2022-12-07T00:11:00;5.25;;;3.25;;
22713;SDS011;11524;50.846;4.326;2022-12-07T00:13:30;6.68;;;3.30;;
22713;SDS011;11524;50.846;4.326;2022-12-07T00:15:59;4.07;;;3.20;;
22713;SDS011;11524;50.846;4.326;2022-12-07T00:18:26;4.35;;;3.13;;
22713;SDS011;11524;50.846;4.326;2022-12-07T00:20:52;6.00;;;3.45;;
22713;SDS011;11524;50.846;4.326;2022-12-07T00:23:17;4.22;;;3.30;;
22713;SDS011;11524;50.846;4.326;2022-12-07T00:25:43;3.92;;;3.05;;
22713;SDS011;11524;50.846;4.326;2022-12-07T00:28:09;5.15;;;3.40;;
22713;SDS011;11524;50.846;4.326;2022-12-07T00:30:35;4.28;;;3.03;;
22713;SDS011;11524;50.846;4.326;2022-12-07T00:33:01;5.47;;;3.45;;
22713;SDS011;11524;50.846;4.326;2022-12-07T00:35:26;4.55;;;3.20;;
22713;SDS011;11524;50.846;4.326;2022-12-07T00:37:52;4.50;;;3.20;;
22713;SDS011;11524;50.846;4.326;2022-12-07T00:40:18;4.65;;;3.13;;
22713;SDS011;11524;50.846;4.326;2022-12-07T00:42:44;5.35;;;3.72;;
22713;SDS011;11524;50.846;4.326;2022-12-07T00:45:10;6.20;;;3.67;;
22713;SDS011;11524;50.846;4.326;2022-12-07T00:47:35;5.00;;;3.63;;
22713;SDS011;11524;50.846;4.326;2022-12-07T00:50:01;5.18;;;2.97;;
22713;SDS011;11524;50.846;4.326;2022-12-07T00:52:26;5.35;;;3.80;;
22713;SDS011;11524;50.846;4.326;2022-12-07T00:54:52;5.40;;;3.47;;
22713;SDS011;11524;50.846;4.326;2022-12-07T00:57:17;5.82;;;3.55;;
22713;SDS011;11524;50.846;4.326;2022-12-07T00:59:43;4.70;;;3.42;;
22713;SDS011;11524;50.846;4.326;2022-12-07T01:02:08;4.53;;;3.38;;
22713;SDS011;11524;50.846;4.326;2022-12-07T01:04:34;4.95;;;3.00;;
22713;SDS011;11524;50.846;4.326;2022-12-07T01:07:00;5.22;;;3.72;;
22713;SDS011;11524;50.846;4.326;2022-12-07T01:09:25;4.32;;;3.35;;
22713;SDS011;11524;50.846;4.326;2022-12-07T01:11:51;4.50;;;3.22;;
22713;SDS011;11524;50.846;4.326;2022-12-07T01:14:16;5.43;;;3.58;;
22713;SDS011;11524;50.846;4.326;2022-12-07T01:16:42;4.30;;;3.03;;
22713;SDS011;11524;50.846;4.326;2022-12-07T01:19:07;4.18;;;3.25;;
22713;SDS011;11524;50.846;4.326;2022-12-07T01:21:34;3.67;;;3.00;;
22713;SDS011;11524;50.846;4.326;2022-12-07T01:24:06;4.38;;;3.17;;
22713;SDS011;11524;50.846;4.326;2022-12-07T01:26:34;4.28;;;3.20;;
22713;SDS011;11524;50.846;4.326;2022-12-07T01:29:00;4.63;;;3.17;;
22713;SDS011;11524;50.846;4.326;2022-12-07T01:31:26;5.13;;;3.35;;
22713;SDS011;11524;50.846;4.326;2022-12-07T01:33:54;6.78;;;3.30;;
22713;SDS011;11524;50.846;4.326;2022-12-07T01:36:25;4.07;;;3.20;;
22713;SDS011;11524;50.846;4.326;2022-12-07T01:38:59;5.15;;;3.30;;
22713;SDS011;11524;50.846;4.326;2022-12-07T01:41:28;4.97;;;3.40;;
22713;SDS011;11524;50.846;4.326;2022-12-07T01:46:38;5.15;;;3.45;;
22713;SDS011;11524;50.846;4.326;2022-12-07T01:49:05;5.90;;;3.03;;
22713;SDS011;11524;50.846;4.326;2022-12-07T01:51:35;4.35;;;3.03;;
22713;SDS011;11524;50.846;4.326;2022-12-07T01:54:04;3.83;;;3.38;;
22713;SDS011;11524;50.846;4.326;2022-12-07T01:56:29;4.47;;;3.15;;
22713;SDS011;11524;50.846;4.326;2022-12-07T01:58:57;7.25;;;3.58;;
22713;SDS011;11524;50.846;4.326;2022-12-07T02:01:25;5.93;;;3.95;;
22713;SDS011;11524;50.846;4.326;2022-12-07T02:03:50;4.95;;;4.22;;
22713;SDS011;11524;50.846;4.326;2022-12-07T02:06:18;4.45;;;4.00;;
22713;SDS011;11524;50.846;4.326;2022-12-07T02:08:47;4.20;;;3.45;;
22713;SDS011;11524;50.846;4.326;2022-12-07T02:11:13;4.10;;;3.47;;
22713;SDS011;11524;50.846;4.326;2022-12-07T02:13:40;7.25;;;3.92;;
22713;SDS011;11524;50.846;4.326;2022-12-07T02:25:11;4.63;;;3.70;;
22713;SDS011;11524;50.846;4.326;2022-12-07T02:30:42;5.70;;;4.00;;
22713;SDS011;11524;50.846;4.326;2022-12-07T02:33:13;6.43;;;4.15;;
22713;SDS011;11524;50.846;4.326;2022-12-07T02:35:48;5.22;;;3.85;;
22713;SDS011;11524;50.846;4.326;2022-12-07T02:38:24;6.63;;;4.43;;
22713;SDS011;11524;50.846;4.326;2022-12-07T02:41:11;5.32;;;3.78;;
22713;SDS011;11524;50.846;4.326;2022-12-07T02:43:43;5.60;;;3.83;;
22713;SDS011;11524;50.846;4.326;2022-12-07T02:46:17;5.78;;;4.25;;
22713;SDS011;11524;50.846;4.326;2022-12-07T02:49:04;5.63;;;4.15;;
22713;SDS011;11524;50.846;4.326;2022-12-07T02:51:32;4.82;;;3.53;;
22713;SDS011;11524;50.846;4.326;2022-12-07T02:53:58;5.05;;;4.18;;
22713;SDS011;11524;50.846;4.326;2022-12-07T02:56:35;6.15;;;3.70;;
22713;SDS011;11524;50.846;4.326;2022-12-07T03:02:46;5.05;;;3.97;;
22713;SDS011;11524;50.846;4.326;2022-12-07T03:11:07;5.68;;;3.88;;
22713;SDS011;11524;50.846;4.326;2022-12-07T03:18:56;8.10;;;3.80;;
22713;SDS011;11524;50.846;4.326;2022-12-07T03:21:28;4.35;;;3.72;;
22713;SDS011;11524;50.846;4.326;2022-12-07T03:24:00;5.53;;;4.10;;
22713;SDS011;11524;50.846;4.326;2022-12-07T03:26:32;4.90;;;3.75;;
22713;SDS011;11524;50.846;4.326;2022-12-07T03:29:10;4.07;;;3.40;;
22713;SDS011;11524;50.846;4.326;2022-12-07T03:31:41;4.60;;;3.78;;
22713;SDS011;11524;50.846;4.326;2022-12-07T03:34:18;4.45;;;3.50;;
22713;SDS011;11524;50.846;4.326;2022-12-07T03:42:05;4.70;;;3.78;;
22713;SDS011;11524;50.846;4.326;2022-12-07T03:44:33;4.95;;;4.07;;
22713;SDS011;11524;50.846;4.326;2022-12-07T03:47:01;4.47;;;3.60;;
22713;SDS011;11524;50.846;4.326;2022-12-07T03:49:53;5.45;;;3.63;;
22713;SDS011;11524;50.846;4.326;2022-12-07T03:52:25;4.45;;;3.40;;
22713;SDS011;11524;50.846;4.326;2022-12-07T03:57:48;4.95;;;3.85;;
22713;SDS011;11524;50.846;4.326;2022-12-07T04:00:16;7.60;;;4.18;;
22713;SDS011;11524;50.846;4.326;2022-12-07T04:02:43;6.03;;;4.15;;
22713;SDS011;11524;50.846;4.326;2022-12-07T04:05:09;4.03;;;3.38;;
22713;SDS011;11524;50.846;4.326;2022-12-07T04:07:37;4.00;;;3.35;;
22713;SDS011;11524;50.846;4.326;2022-12-07T04:10:03;4.85;;;3.83;;
22713;SDS011;11524;50.846;4.326;2022-12-07T04:12:29;5.05;;;3.90;;
22713;SDS011;11524;50.846;4.326;2022-12-07T04:14:55;4.75;;;3.50;;
22713;SDS011;11524;50.846;4.326;2022-12-07T04:17:20;5.45;;;4.00;;
22713;SDS011;11524;50.846;4.326;2022-12-07T04:19:46;4.97;;;3.72;;
22713;SDS011;11524;50.846;4.326;2022-12-07T04:22:11;6.43;;;4.28;;
22713;SDS011;11524;50.846;4.326;2022-12-07T04:24:37;5.57;;;3.65;;
22713;SDS011;11524;50.846;4.326;2022-12-07T04:27:03;5.63;;;4.10;;
22713;SDS011;11524;50.846;4.326;2022-12-07T04:29:29;5.68;;;3.55;;
22713;SDS011;11524;50.846;4.326;2022-12-07T04:31:55;6.38;;;4.18;;
22713;SDS011;11524;50.846;4.326;2022-12-07T04:34:20;4.45;;;3.45;;
22713;SDS011;11524;50.846;4.326;2022-12-07T04:36:46;4.22;;;3.47;;
22713;SDS011;11524;50.846;4.326;2022-12-07T04:39:23;7.03;;;3.72;;
22713;SDS011;11524;50.846;4.326;2022-12-07T04:41:50;5.93;;;3.78;;
22713;SDS011;11524;50.846;4.326;2022-12-07T04:44:17;8.00;;;3.80;;
22713;SDS011;11524;50.846;4.326;2022-12-07T04:46:43;5.05;;;3.92;;
22713;SDS011;11524;50.846;4.326;2022-12-07T04:49:09;3.70;;;3.15;;
22713;SDS011;11524;50.846;4.326;2022-12-07T04:51:35;5.15;;;3.35;;
22713;SDS011;11524;50.846;4.326;2022-12-07T04:54:01;4.25;;;3.35;;
22713;SDS011;11524;50.846;4.326;2022-12-07T04:56:26;7.40;;;3.97;;
22713;SDS011;11524;50.846;4.326;2022-12-07T04:58:53;4.50;;;3.75;;
22713;SDS011;11524;50.846;4.326;2022-12-07T05:01:19;5.10;;;3.72;;
22713;SDS011;11524;50.846;4.326;2022-12-07T05:03:45;4.55;;;3.25;;
22713;SDS011;11524;50.846;4.326;2022-12-07T05:06:11;7.57;;;3.53;;
22713;SDS011;11524;50.846;4.326;2022-12-07T05:08:38;5.47;;;3.70;;
22713;SDS011;11524;50.846;4.326;2022-12-07T05:11:04;5.53;;;3.50;;
22713;SDS011;11524;50.846;4.326;2022-12-07T05:13:31;5.35;;;3.97;;
22713;SDS011;11524;50.846;4.326;2022-12-07T05:15:57;4.72;;;3.17;;
22713;SDS011;11524;50.846;4.326;2022-12-07T05:18:23;5.82;;;3.47;;
22713;SDS011;11524;50.846;4.326;2022-12-07T05:20:49;6.05;;;3.83;;
22713;SDS011;11524;50.846;4.326;2022-12-07T05:23:16;4.88;;;3.67;;
22713;SDS011;11524;50.846;4.326;2022-12-07T05:25:42;4.68;;;3.53;;
22713;SDS011;11524;50.846;4.326;2022-12-07T05:28:09;6.20;;;3.28;;
22713;SDS011;11524;50.846;4.326;2022-12-07T05:30:35;4.30;;;3.28;;
22713;SDS011;11524;50.846;4.326;2022-12-07T05:33:01;4.50;;;3.47;;
22713;SDS011;11524;50.846;4.326;2022-12-07T05:35:27;4.20;;;3.10;;
22713;SDS011;11524;50.846;4.326;2022-12-07T05:37:54;3.63;;;3.33;;
22713;SDS011;11524;50.846;4.326;2022-12-07T05:40:20;4.85;;;3.70;;
22713;SDS011;11524;50.846;4.326;2022-12-07T05:42:46;5.72;;;3.60;;
22713;SDS011;11524;50.846;4.326;2022-12-07T05:45:11;5.03;;;3.47;;
22713;SDS011;11524;50.846;4.326;2022-12-07T05:47:37;6.03;;;3.72;;
22713;SDS011;11524;50.846;4.326;2022-12-07T05:50:03;4.53;;;3.30;;
22713;SDS011;11524;50.846;4.326;2022-12-07T05:52:29;4.15;;;3.40;;
22713;SDS011;11524;50.846;4.326;2022-12-07T05:54:55;8.20;;;3.58;;
22713;SDS011;11524;50.846;4.326;2022-12-07T05:57:20;4.80;;;3.13;;
22713;SDS011;11524;50.846;4.326;2022-12-07T05:59:46;5.40;;;3.28;;
22713;SDS011;11524;50.846;4.326;2022-12-07T06:02:13;4.50;;;3.33;;
22713;SDS011;11524;50.846;4.326;2022-12-07T06:04:40;4.53;;;4.00;;
22713;SDS011;11524;50.846;4.326;2022-12-07T06:07:10;4.38;;;3.50;;
22713;SDS011;11524;50.846;4.326;2022-12-07T06:09:36;3.50;;;2.65;;
22713;SDS011;11524;50.846;4.326;2022-12-07T06:12:03;4.85;;;3.55;;
22713;SDS011;11524;50.846;4.326;2022-12-07T06:14:48;4.68;;;3.28;;
22713;SDS011;11524;50.846;4.326;2022-12-07T06:17:14;5.13;;;3.45;;
22713;SDS011;11524;50.846;4.326;2022-12-07T06:19:40;6.13;;;3.38;;
22713;SDS011;11524;50.846;4.326;2022-12-07T06:22:06;4.50;;;3.40;;
22713;SDS011;11524;50.846;4.326;2022-12-07T06:24:32;4.82;;;3.15;;
22713;SDS011;11524;50.846;4.326;2022-12-07T06:26:58;4.93;;;3.47;;
22713;SDS011;11524;50.846;4.326;2022-12-07T06:29:24;4.53;;;3.38;;
22713;SDS011;11524;50.846;4.326;2022-12-07T06:31:50;4.60;;;3.38;;
22713;SDS011;11524;50.846;4.326;2022-12-07T06:34:16;4.63;;;3.20;;
22713;SDS011;11524;50.846;4.326;2022-12-07T06:36:43;5.85;;;3.45;;
22713;SDS011;11524;50.846;4.326;2022-12-07T06:39:09;3.88;;;3.40;;
22713;SDS011;11524;50.846;4.326;2022-12-07T06:41:38;6.22;;;3.33;;
22713;SDS011;11524;50.846;4.326;2022-12-07T06:44:04;7.72;;;3.80;;
22713;SDS011;11524;50.846;4.326;2022-12-07T06:46:30;4.63;;;3.42;;
22713;SDS011;11524;50.846;4.326;2022-12-07T06:48:56;9.13;;;3.95;;
22713;SDS011;11524;50.846;4.326;2022-12-07T06:51:22;6.53;;;3.53;;
22713;SDS011;11524;50.846;4.326;2022-12-07T06:53:47;4.15;;;3.63;;
22713;SDS011;11524;50.846;4.326;2022-12-07T06:56:13;4.57;;;3.10;;
22713;SDS011;11524;50.846;4.326;2022-12-07T06:58:39;6.65;;;3.67;;
22713;SDS011;11524;50.846;4.326;2022-12-07T07:01:15;6.22;;;3.03;;
22713;SDS011;11524;50.846;4.326;2022-12-07T07:03:41;4.88;;;3.28;;
22713;SDS011;11524;50.846;4.326;2022-12-07T07:06:08;7.38;;;3.47;;
22713;SDS011;11524;50.846;4.326;2022-12-07T07:08:34;5.95;;;3.35;;
22713;SDS011;11524;50.846;4.326;2022-12-07T07:11:00;5.60;;;3.67;;
22713;SDS011;11524;50.846;4.326;2022-12-07T07:13:26;7.05;;;3.75;;
22713;SDS011;11524;50.846;4.326;2022-12-07T07:15:52;7.10;;;3.97;;
22713;SDS011;11524;50.846;4.326;2022-12-07T07:18:18;5.65;;;3.53;;
22713;SDS011;11524;50.846;4.326;2022-12-07T07:20:44;6.05;;;3.65;;
22713;SDS011;11524;50.846;4.326;2022-12-07T07:23:10;6.68;;;3.58;;
22713;SDS011;11524;50.846;4.326;2022-12-07T07:25:35;6.45;;;4.10;;
22713;SDS011;11524;50.846;4.326;2022-12-07T07:28:01;5.55;;;3.35;;
22713;SDS011;11524;50.846;4.326;2022-12-07T07:30:26;4.75;;;3.58;;
22713;SDS011;11524;50.846;4.326;2022-12-07T07:32:56;5.60;;;4.00;;
22713;SDS011;11524;50.846;4.326;2022-12-07T07:35:23;6.68;;;3.05;;
22713;SDS011;11524;50.846;4.326;2022-12-07T07:37:49;6.35;;;3.63;;
22713;SDS011;11524;50.846;4.326;2022-12-07T07:40:14;6.25;;;4.22;;
22713;SDS011;11524;50.846;4.326;2022-12-07T07:42:40;10.05;;;3.85;;
22713;SDS011;11524;50.846;4.326;2022-12-07T07:45:06;4.85;;;3.38;;
22713;SDS011;11524;50.846;4.326;2022-12-07T07:47:32;6.45;;;3.92;;
22713;SDS011;11524;50.846;4.326;2022-12-07T07:49:57;8.52;;;6.00;;
22713;SDS011;11524;50.846;4.326;2022-12-07T07:52:23;9.60;;;5.90;;
22713;SDS011;11524;50.846;4.326;2022-12-07T07:54:48;11.60;;;4.75;;
22713;SDS011;11524;50.846;4.326;2022-12-07T07:57:15;5.78;;;3.72;;
22713;SDS011;11524;50.846;4.326;2022-12-07T07:59:41;6.38;;;3.75;;
22713;SDS011;11524;50.846;4.326;2022-12-07T08:02:09;7.68;;;3.90;;
22713;SDS011;11524;50.846;4.326;2022-12-07T08:04:39;6.07;;;3.80;;
22713;SDS011;11524;50.846;4.326;2022-12-07T08:07:05;5.47;;;3.85;;
22713;SDS011;11524;50.846;4.326;2022-12-07T08:09:31;5.75;;;3.60;;
22713;SDS011;11524;50.846;4.326;2022-12-07T08:11:57;5.95;;;3.83;;
22713;SDS011;11524;50.846;4.326;2022-12-07T08:14:22;7.50;;;3.47;;
22713;SDS011;11524;50.846;4.326;2022-12-07T08:16:49;5.72;;;3.75;;
22713;SDS011;11524;50.846;4.326;2022-12-07T08:19:14;7.20;;;4.35;;
22713;SDS011;11524;50.846;4.326;2022-12-07T08:21:40;6.70;;;4.55;;
22713;SDS011;11524;50.846;4.326;2022-12-07T08:24:05;8.57;;;4.25;;
22713;SDS011;11524;50.846;4.326;2022-12-07T08:26:31;5.43;;;3.50;;
22713;SDS011;11524;50.846;4.326;2022-12-07T08:28:57;6.60;;;4.88;;
22713;SDS011;11524;50.846;4.326;2022-12-07T08:31:22;8.00;;;3.70;;
22713;SDS011;11524;50.846;4.326;2022-12-07T08:33:49;7.65;;;4.22;;
22713;SDS011;11524;50.846;4.326;2022-12-07T08:36:14;6.15;;;3.33;;
22713;SDS011;11524;50.846;4.326;2022-12-07T08:38:42;6.75;;;4.38;;
22713;SDS011;11524;50.846;4.326;2022-12-07T08:41:08;6.25;;;4.03;;
22713;SDS011;11524;50.846;4.326;2022-12-07T08:43:34;4.68;;;2.95;;
22713;SDS011;11524;50.846;4.326;2022-12-07T08:46:11;6.28;;;3.75;;
22713;SDS011;11524;50.846;4.326;2022-12-07T08:48:49;6.03;;;3.88;;
22713;SDS011;11524;50.846;4.326;2022-12-07T08:51:20;5.80;;;3.70;;
22713;SDS011;11524;50.846;4.326;2022-12-07T08:53:47;5.57;;;4.10;;
22713;SDS011;11524;50.846;4.326;2022-12-07T08:56:14;5.47;;;3.53;;
22713;SDS011;11524;50.846;4.326;2022-12-07T08:58:40;6.65;;;3.25;;
22713;SDS011;11524;50.846;4.326;2022-12-07T09:01:06;5.20;;;3.55;;
22713;SDS011;11524;50.846;4.326;2022-12-07T09:03:32;7.70;;;4.28;;
22713;SDS011;11524;50.846;4.326;2022-12-07T09:05:58;4.00;;;2.95;;
22713;SDS011;11524;50.846;4.326;2022-12-07T09:08:26;5.55;;;3.50;;
22713;SDS011;11524;50.846;4.326;2022-12-07T09:10:56;5.03;;;3.22;;
22713;SDS011;11524;50.846;4.326;2022-12-07T09:13:22;6.45;;;3.65;;
22713;SDS011;11524;50.846;4.326;2022-12-07T09:15:47;6.47;;;4.22;;
22713;SDS011;11524;50.846;4.326;2022-12-07T09:18:13;5.10;;;3.95;;
22713;SDS011;11524;50.846;4.326;2022-12-07T09:20:39;5.85;;;3.50;;
22713;SDS011;11524;50.846;4.326;2022-12-07T09:23:05;6.15;;;3.85;;
22713;SDS011;11524;50.846;4.326;2022-12-07T09:25:32;5.13;;;3.40;;
22713;SDS011;11524;50.846;4.326;2022-12-07T09:27:58;6.13;;;3.53;;
22713;SDS011;11524;50.846;4.326;2022-12-07T09:30:24;5.50;;;3.38;;
22713;SDS011;11524;50.846;4.326;2022-12-07T09:32:52;6.32;;;3.10;;
22713;SDS011;11524;50.846;4.326;2022-12-07T09:35:18;5.90;;;3.45;;
22713;SDS011;11524;50.846;4.326;2022-12-07T09:37:44;5.60;;;3.25;;
22713;SDS011;11524;50.846;4.326;2022-12-07T09:40:10;4.97;;;3.17;;
22713;SDS011;11524;50.846;4.326;2022-12-07T09:42:39;6.78;;;3.50;;
22713;SDS011;11524;50.846;4.326;2022-12-07T09:45:12;4.47;;;3.47;;
22713;SDS011;11524;50.846;4.326;2022-12-07T09:47:44;5.80;;;3.70;;
22713;SDS011;11524;50.846;4.326;2022-12-07T09:50:14;8.95;;;3.38;;
22713;SDS011;11524;50.846;4.326;2022-12-07T09:52:44;4.93;;;3.30;;
22713;SDS011;11524;50.846;4.326;2022-12-07T09:55:13;5.00;;;3.28;;
22713;SDS011;11524;50.846;4.326;2022-12-07T09:57:42;6.97;;;3.92;;
22713;SDS011;11524;50.846;4.326;2022-12-07T10:00:12;4.47;;;3.45;;
22713;SDS011;11524;50.846;4.326;2022-12-07T10:02:50;6.35;;;3.70;;
22713;SDS011;11524;50.846;4.326;2022-12-07T10:07:59;3.70;;;3.20;;
22713;SDS011;11524;50.846;4.326;2022-12-07T10:10:26;4.45;;;3.15;;
22713;SDS011;11524;50.846;4.326;2022-12-07T10:12:59;6.28;;;3.55;;
22713;SDS011;11524;50.846;4.326;2022-12-07T10:15:40;6.88;;;3.50;;
22713;SDS011;11524;50.846;4.326;2022-12-07T10:18:17;6.47;;;2.80;;
22713;SDS011;11524;50.846;4.326;2022-12-07T10:20:43;5.03;;;3.05;;
22713;SDS011;11524;50.846;4.326;2022-12-07T10:23:14;4.32;;;3.10;;
22713;SDS011;11524;50.846;4.326;2022-12-07T10:25:41;5.65;;;3.10;;
22713;SDS011;11524;50.846;4.326;2022-12-07T10:30:33;4.93;;;3.00;;
22713;SDS011;11524;50.846;4.326;2022-12-07T10:36:16;4.97;;;2.92;;
22713;SDS011;11524;50.846;4.326;2022-12-07T10:38:45;4.05;;;2.42;;
22713;SDS011;11524;50.846;4.326;2022-12-07T10:41:15;4.35;;;2.90;;
22713;SDS011;11524;50.846;4.326;2022-12-07T10:43:48;6.05;;;2.78;;
22713;SDS011;11524;50.846;4.326;2022-12-07T10:46:22;5.38;;;3.45;;
22713;SDS011;11524;50.846;4.326;2022-12-07T11:00:29;5.15;;;2.92;;
22713;SDS011;11524;50.846;4.326;2022-12-07T11:03:12;4.32;;;2.38;;
22713;SDS011;11524;50.846;4.326;2022-12-07T11:06:05;4.23;;;2.50;;
22713;SDS011;11524;50.846;4.326;2022-12-07T11:13:43;5.38;;;2.58;;
22713;SDS011;11524;50.846;4.326;2022-12-07T11:27:09;4.97;;;2.78;;
22713;SDS011;11524;50.846;4.326;2022-12-07T11:35:22;3.95;;;2.35;;
22713;SDS011;11524;50.846;4.326;2022-12-07T11:38:06;4.88;;;2.45;;
22713;SDS011;11524;50.846;4.326;2022-12-07T11:40:40;5.25;;;2.33;;
22713;SDS011;11524;50.846;4.326;2022-12-07T11:43:20;7.65;;;3.05;;
22713;SDS011;11524;50.846;4.326;2022-12-07T11:46:02;3.80;;;2.10;;
22713;SDS011;11524;50.846;4.326;2022-12-07T11:48:37;4.45;;;2.55;;
22713;SDS011;11524;50.846;4.326;2022-12-07T11:51:10;3.35;;;2.15;;
22713;SDS011;11524;50.846;4.326;2022-12-07T11:53:47;3.67;;;2.35;;
22713;SDS011;11524;50.846;4.326;2022-12-07T11:56:19;4.00;;;2.22;;
22713;SDS011;11524;50.846;4.326;2022-12-07T11:58:48;5.65;;;2.85;;
22713;SDS011;11524;50.846;4.326;2022-12-07T12:03:51;4.13;;;2.38;;
22713;SDS011;11524;50.846;4.326;2022-12-07T12:06:20;4.43;;;2.20;;
22713;SDS011;11524;50.846;4.326;2022-12-07T12:08:49;5.10;;;2.30;;
22713;SDS011;11524;50.846;4.326;2022-12-07T12:22:21;5.78;;;1.88;;
22713;SDS011;11524;50.846;4.326;2022-12-07T12:24:53;4.65;;;1.88;;
22713;SDS011;11524;50.846;4.326;2022-12-07T12:27:24;2.92;;;1.60;;
22713;SDS011;11524;50.846;4.326;2022-12-07T12:29:55;3.42;;;1.70;;
22713;SDS011;11524;50.846;4.326;2022-12-07T12:35:48;5.63;;;1.90;;
22713;SDS011;11524;50.846;4.326;2022-12-07T12:37:54;3.10;;;1.88;;
22713;SDS011;11524;50.846;4.326;2022-12-07T12:42:49;5.05;;;1.85;;
22713;SDS011;11524;50.846;4.326;2022-12-07T12:45:24;4.97;;;2.13;;
22713;SDS011;11524;50.846;4.326;2022-12-07T12:50:29;3.33;;;1.85;;
22713;SDS011;11524;50.846;4.326;2022-12-07T12:58:55;3.92;;;1.95;;
22713;SDS011;11524;50.846;4.326;2022-12-07T13:15:47;3.15;;;1.55;;
22713;SDS011;11524;50.846;4.326;2022-12-07T13:36:59;4.70;;;1.80;;
22713;SDS011;11524;50.846;4.326;2022-12-07T13:39:27;3.53;;;1.92;;
22713;SDS011;11524;50.846;4.326;2022-12-07T13:42:06;3.50;;;1.52;;
22713;SDS011;11524;50.846;4.326;2022-12-07T13:44:40;2.63;;;1.40;;
22713;SDS011;11524;50.846;4.326;2022-12-07T13:47:51;5.38;;;2.00;;
22713;SDS011;11524;50.846;4.326;2022-12-07T13:49:56;3.38;;;2.30;;
22713;SDS011;11524;50.846;4.326;2022-12-07T13:52:29;3.05;;;1.60;;
22713;SDS011;11524;50.846;4.326;2022-12-07T13:54:59;5.03;;;1.70;;
22713;SDS011;11524;50.846;4.326;2022-12-07T13:57:47;3.20;;;1.73;;
22713;SDS011;11524;50.846;4.326;2022-12-07T14:00:16;3.67;;;1.63;;
22713;SDS011;11524;50.846;4.326;2022-12-07T14:02:57;5.03;;;1.67;;
22713;SDS011;11524;50.846;4.326;2022-12-07T14:05:44;2.45;;;1.60;;
22713;SDS011;11524;50.846;4.326;2022-12-07T14:10:39;2.25;;;1.42;;
22713;SDS011;11524;50.846;4.326;2022-12-07T14:15:52;4.75;;;2.08;;
22713;SDS011;11524;50.846;4.326;2022-12-07T14:18:25;4.57;;;2.78;;
22713;SDS011;11524;50.846;4.326;2022-12-07T14:23:36;4.95;;;2.20;;
22713;SDS011;11524;50.846;4.326;2022-12-07T14:26:05;4.38;;;1.70;;
22713;SDS011;11524;50.846;4.326;2022-12-07T14:28:41;4.55;;;2.53;;
22713;SDS011;11524;50.846;4.326;2022-12-07T14:31:10;3.65;;;2.10;;
22713;SDS011;11524;50.846;4.326;2022-12-07T14:33:38;3.63;;;1.63;;
22713;SDS011;11524;50.846;4.326;2022-12-07T14:36:04;2.85;;;1.80;;
22713;SDS011;11524;50.846;4.326;2022-12-07T14:38:31;3.75;;;1.70;;
22713;SDS011;11524;50.846;4.326;2022-12-07T14:40:56;3.95;;;1.60;;
22713;SDS011;11524;50.846;4.326;2022-12-07T14:43:42;6.18;;;2.25;;
22713;SDS011;11524;50.846;4.326;2022-12-07T14:46:08;3.72;;;2.15;;
22713;SDS011;11524;50.846;4.326;2022-12-07T14:48:34;3.42;;;1.80;;
22713;SDS011;11524;50.846;4.326;2022-12-07T14:51:00;2.63;;;1.70;;
22713;SDS011;11524;50.846;4.326;2022-12-07T14:53:28;5.47;;;1.80;;
22713;SDS011;11524;50.846;4.326;2022-12-07T14:55:56;3.70;;;1.90;;
22713;SDS011;11524;50.846;4.326;2022-12-07T14:58:22;4.13;;;1.75;;
22713;SDS011;11524;50.846;4.326;2022-12-07T15:00:47;6.47;;;2.72;;
22713;SDS011;11524;50.846;4.326;2022-12-07T15:03:13;5.65;;;2.33;;
22713;SDS011;11524;50.846;4.326;2022-12-07T15:05:39;4.25;;;1.98;;
22713;SDS011;11524;50.846;4.326;2022-12-07T15:08:06;4.47;;;1.98;;
22713;SDS011;11524;50.846;4.326;2022-12-07T15:10:33;2.95;;;1.40;;
22713;SDS011;11524;50.846;4.326;2022-12-07T15:13:02;4.38;;;1.52;;
22713;SDS011;11524;50.846;4.326;2022-12-07T15:15:47;4.43;;;1.70;;
22713;SDS011;11524;50.846;4.326;2022-12-07T15:18:14;7.05;;;1.95;;
22713;SDS011;11524;50.846;4.326;2022-12-07T15:20:40;4.28;;;1.88;;
22713;SDS011;11524;50.846;4.326;2022-12-07T15:23:06;3.15;;;1.70;;
22713;SDS011;11524;50.846;4.326;2022-12-07T15:25:32;3.17;;;1.90;;
22713;SDS011;11524;50.846;4.326;2022-12-07T15:27:58;5.43;;;2.10;;
22713;SDS011;11524;50.846;4.326;2022-12-07T15:30:23;5.40;;;1.88;;
22713;SDS011;11524;50.846;4.326;2022-12-07T15:32:49;5.70;;;2.10;;
22713;SDS011;11524;50.846;4.326;2022-12-07T15:35:15;5.80;;;2.10;;
22713;SDS011;11524;50.846;4.326;2022-12-07T15:37:41;4.10;;;2.20;;
22713;SDS011;11524;50.846;4.326;2022-12-07T15:40:07;4.13;;;1.77;;
22713;SDS011;11524;50.846;4.326;2022-12-07T15:42:33;5.30;;;2.17;;
22713;SDS011;11524;50.846;4.326;2022-12-07T15:45:00;4.38;;;2.10;;
22713;SDS011;11524;50.846;4.326;2022-12-07T15:47:29;6.40;;;2.22;;
22713;SDS011;11524;50.846;4.326;2022-12-07T15:49:55;4.20;;;2.20;;
22713;SDS011;11524;50.846;4.326;2022-12-07T15:52:21;6.95;;;2.40;;
22713;SDS011;11524;50.846;4.326;2022-12-07T15:54:46;5.95;;;2.80;;
22713;SDS011;11524;50.846;4.326;2022-12-07T15:57:12;7.72;;;2.60;;
22713;SDS011;11524;50.846;4.326;2022-12-07T15:59:38;10.77;;;3.03;;
22713;SDS011;11524;50.846;4.326;2022-12-07T16:02:04;10.30;;;2.55;;
22713;SDS011;11524;50.846;4.326;2022-12-07T16:04:30;9.52;;;3.05;;
22713;SDS011;11524;50.846;4.326;2022-12-07T16:06:55;10.02;;;2.60;;
22713;SDS011;11524;50.846;4.326;2022-12-07T16:09:21;7.75;;;2.90;;
22713;SDS011;11524;50.846;4.326;2022-12-07T16:11:47;7.70;;;2.38;;
22713;SDS011;11524;50.846;4.326;2022-12-07T16:14:13;5.80;;;2.55;;
22713;SDS011;11524;50.846;4.326;2022-12-07T16:16:38;9.55;;;2.55;;
22713;SDS011;11524;50.846;4.326;2022-12-07T16:19:05;7.50;;;2.88;;
22713;SDS011;11524;50.846;4.326;2022-12-07T16:21:30;6.45;;;2.15;;
22713;SDS011;11524;50.846;4.326;2022-12-07T16:23:59;7.13;;;2.10;;
22713;SDS011;11524;50.846;4.326;2022-12-07T16:26:25;8.55;;;2.90;;
22713;SDS011;11524;50.846;4.326;2022-12-07T16:28:50;6.65;;;2.70;;
22713;SDS011;11524;50.846;4.326;2022-12-07T16:31:19;8.50;;;2.35;;
22713;SDS011;11524;50.846;4.326;2022-12-07T16:33:46;6.75;;;2.80;;
22713;SDS011;11524;50.846;4.326;2022-12-07T16:36:12;6.82;;;2.85;;
22713;SDS011;11524;50.846;4.326;2022-12-07T16:38:41;5.80;;;2.25;;
22713;SDS011;11524;50.846;4.326;2022-12-07T16:41:07;5.93;;;2.20;;
22713;SDS011;11524;50.846;4.326;2022-12-07T16:43:33;9.90;;;2.75;;
22713;SDS011;11524;50.846;4.326;2022-12-07T16:45:59;6.38;;;3.25;;
22713;SDS011;11524;50.846;4.326;2022-12-07T16:48:25;10.25;;;2.92;;
22713;SDS011;11524;50.846;4.326;2022-12-07T16:50:51;6.68;;;2.63;;
22713;SDS011;11524;50.846;4.326;2022-12-07T16:53:18;4.20;;;2.33;;
22713;SDS011;11524;50.846;4.326;2022-12-07T16:55:45;4.97;;;2.70;;
22713;SDS011;11524;50.846;4.326;2022-12-07T16:58:12;6.65;;;2.90;;
22713;SDS011;11524;50.846;4.326;2022-12-07T17:00:38;10.07;;;3.00;;
22713;SDS011;11524;50.846;4.326;2022-12-07T17:03:04;6.63;;;2.70;;
22713;SDS011;11524;50.846;4.326;2022-12-07T17:05:30;7.18;;;2.83;;
22713;SDS011;11524;50.846;4.326;2022-12-07T17:07:56;5.70;;;2.90;;
22713;SDS011;11524;50.846;4.326;2022-12-07T17:10:22;6.80;;;3.40;;
22713;SDS011;11524;50.846;4.326;2022-12-07T17:12:48;6.53;;;3.22;;
22713;SDS011;11524;50.846;4.326;2022-12-07T17:15:15;6.70;;;2.97;;
22713;SDS011;11524;50.846;4.326;2022-12-07T17:17:46;6.40;;;3.00;;
22713;SDS011;11524;50.846;4.326;2022-12-07T17:20:16;5.60;;;2.95;;
22713;SDS011;11524;50.846;4.326;2022-12-07T17:22:42;5.47;;;3.30;;